Terminal Aerodrome Forecast
Issued by NWS Atlanta, GA

Home | Current Version | Previous Version | Text Only | Print | Product List | Glossary On
Versions: 1 2 3 4 5 6 7 8 9 10 11 12 13 14 15 16 17 18 19 20 21 22 23
000
FTUS42 KFFC 261511 AAA
TAFCSG
TAF AMD
KCSG 261511Z 2615/2712 19004KT P6SM SCT025
     FM261700 19006KT P6SM BKN025
     FM262000 20006KT P6SM VCSH BKN035
     FM270000 19004KT P6SM BKN050
     FM270500 20003KT P6SM BKN035
     FM270900 20003KT 4SM BR BKN020=

USA.gov is the U.S. government's official web portal to all federal, state and local government web resources and services.